Tremont, IL (61568)

7:10 AM CST on December 05, 2016 (GMT -0600)
Tazewell County EMA | | Change Station

Elev 650 ft 40.54 °N, 89.52 °W | Updated 25 seconds ago

Overcast
Overcast
33.4 °F
Feels Like 25 °F
N
10.8
Wind Variable Wind from SSW
Gusts 12.8 mph

Today
High -- | Low -- °F
--% Chance of Precip.
Yesterday
High -- | Low -- °F
Precip. -- in
Pressure 30.05 in
Visibility 3.0 miles
Clouds Overcast 400 ft
Windchill 25 °F
Dew Point 33 °F
Humidity 100%
Rainfall 0.03 in
Snow Depth Not available.
7:06 AM 4:31 PM
Waxing Crescent, 31% visible
METAR KPIA 051254Z 19007KT 3SM BR OVC004 01/01 A3003 RMK AO2 SLP174 T00060006
Pressure 30.05 in
Visibility 3.0 miles
Clouds Overcast 400 ft
Windchill 25 °F
Dew Point 33 °F
Humidity 100%
Rainfall 0.03 in
Snow Depth Not available.
7:06 AM 4:31 PM
Waxing Crescent, 31% visible
METAR KPIA 051254Z 19007KT 3SM BR OVC004 01/01 A3003 RMK AO2 SLP174 T00060006

10-Day Weather Forecast

Almanac

Astronomy

Dec. 05, 2016 Rise Set
Actual Time
Civil Twilight
Nautical Twilight
Astronomical Twilight
Moon
Length of Visible Light
Length of Day
Tomorrow will be .
, % of the Moon is Illuminated

Today's Extremes

State Highs State Lows

Community

WunderPhotos

Upload Photos

1,955,780 photos uploaded!

WunderBlog® & News

Nearby

Air Quality

  Air Quality AQ Index Pollutant
Not available.

Snow Depth

Station Depth Elevation

Earthquake Activity

City Distance Mag. Time & Date
Minimum magnitude displayed is 2.5.

Coastal Water Temperatures

Place Temperature

Stations

Nearby Weather Stations

Station Location Temp. Windchill Dew Point Humidity Wind Precip. Elev Updated Type
                   

Watches & Warnings

There are currently no watches in effect.